sensor_id;sensor_type;location;lat;lon;timestamp;pressure;altitude;pressure_sealevel;temperature;humidity
28312;BME280;15572;48.810;9.148;2023-04-03T00:03:29;98894.09;;;3.74;94.11
28312;BME280;15572;48.810;9.148;2023-04-03T00:08:25;98896.53;;;3.77;94.52
28312;BME280;15572;48.810;9.148;2023-04-03T00:13:22;98890.03;;;3.79;94.71
28312;BME280;15572;48.810;9.148;2023-04-03T00:18:19;98905.97;;;3.81;94.46
28312;BME280;15572;48.810;9.148;2023-04-03T00:23:16;98899.63;;;3.82;95.33
28312;BME280;15572;48.810;9.148;2023-04-03T00:28:13;98906.41;;;3.86;94.69
28312;BME280;15572;48.810;9.148;2023-04-03T00:33:11;98900.91;;;3.88;93.80
28312;BME280;15572;48.810;9.148;2023-04-03T00:38:08;98900.63;;;3.91;94.13
28312;BME280;15572;48.810;9.148;2023-04-03T00:43:11;98895.69;;;3.86;93.75
28312;BME280;15572;48.810;9.148;2023-04-03T00:48:11;98897.53;;;3.86;94.50
28312;BME280;15572;48.810;9.148;2023-04-03T00:53:12;98899.50;;;3.84;94.34
28312;BME280;15572;48.810;9.148;2023-04-03T00:58:12;98893.84;;;3.77;93.87
28312;BME280;15572;48.810;9.148;2023-04-03T01:03:10;98902.13;;;3.74;94.29
28312;BME280;15572;48.810;9.148;2023-04-03T01:08:07;98893.41;;;3.72;94.09
28312;BME280;15572;48.810;9.148;2023-04-03T01:13:22;98887.94;;;3.73;94.38
28312;BME280;15572;48.810;9.148;2023-04-03T01:18:20;98890.84;;;3.70;94.88
28312;BME280;15572;48.810;9.148;2023-04-03T01:23:23;98895.78;;;3.65;95.42
28312;BME280;15572;48.810;9.148;2023-04-03T01:28:24;98889.97;;;3.60;95.65
28312;BME280;15572;48.810;9.148;2023-04-03T01:33:22;98894.78;;;3.57;96.17
28312;BME280;15572;48.810;9.148;2023-04-03T01:38:19;98886.59;;;3.58;95.90
28312;BME280;15572;48.810;9.148;2023-04-03T01:43:15;98902.53;;;3.60;95.85
28312;BME280;15572;48.810;9.148;2023-04-03T01:48:12;98902.53;;;3.60;96.05
28312;BME280;15572;48.810;9.148;2023-04-03T01:53:10;98898.31;;;3.57;96.37
28312;BME280;15572;48.810;9.148;2023-04-03T01:58:07;98899.97;;;3.58;96.43
28312;BME280;15572;48.810;9.148;2023-04-03T02:03:03;98900.13;;;3.57;96.41
28312;BME280;15572;48.810;9.148;2023-04-03T02:08:00;98895.03;;;3.54;96.38
28312;BME280;15572;48.810;9.148;2023-04-03T02:12:58;98893.19;;;3.54;96.54
28312;BME280;15572;48.810;9.148;2023-04-03T02:17:55;98896.47;;;3.58;96.45
28312;BME280;15572;48.810;9.148;2023-04-03T02:22:51;98898.88;;;3.61;96.69
28312;BME280;15572;48.810;9.148;2023-04-03T02:27:47;98896.91;;;3.63;96.30
28312;BME280;15572;48.810;9.148;2023-04-03T02:32:45;98907.34;;;3.66;96.46
28312;BME280;15572;48.810;9.148;2023-04-03T02:37:42;98904.50;;;3.58;94.85
28312;BME280;15572;48.810;9.148;2023-04-03T02:42:38;98903.78;;;3.56;94.36
28312;BME280;15572;48.810;9.148;2023-04-03T02:47:35;98901.84;;;3.58;93.80
28312;BME280;15572;48.810;9.148;2023-04-03T02:52:33;98905.47;;;3.57;93.17
28312;BME280;15572;48.810;9.148;2023-04-03T02:57:29;98897.56;;;3.55;92.65
28312;BME280;15572;48.810;9.148;2023-04-03T03:02:26;98904.44;;;3.48;89.97
28312;BME280;15572;48.810;9.148;2023-04-03T03:07:22;98900.78;;;3.49;90.09
28312;BME280;15572;48.810;9.148;2023-04-03T03:12:20;98902.50;;;3.50;88.49
28312;BME280;15572;48.810;9.148;2023-04-03T03:17:18;98900.22;;;3.46;85.24
28312;BME280;15572;48.810;9.148;2023-04-03T03:22:16;98893.16;;;3.45;85.23
28312;BME280;15572;48.810;9.148;2023-04-03T03:27:12;98894.88;;;3.46;85.53
28312;BME280;15572;48.810;9.148;2023-04-03T03:32:10;98886.84;;;3.46;84.77
28312;BME280;15572;48.810;9.148;2023-04-03T03:37:07;98884.03;;;3.47;85.65
28312;BME280;15572;48.810;9.148;2023-04-03T03:42:03;98886.56;;;3.49;85.98
28312;BME280;15572;48.810;9.148;2023-04-03T03:47:00;98894.34;;;3.52;85.95
28312;BME280;15572;48.810;9.148;2023-04-03T03:51:57;98888.69;;;3.55;86.44
28312;BME280;15572;48.810;9.148;2023-04-03T03:56:54;98892.78;;;3.59;87.13
28312;BME280;15572;48.810;9.148;2023-04-03T04:01:50;98888.28;;;3.59;86.99
28312;BME280;15572;48.810;9.148;2023-04-03T04:06:47;98894.50;;;3.60;86.35
28312;BME280;15572;48.810;9.148;2023-04-03T04:11:45;98898.16;;;3.59;86.61
28312;BME280;15572;48.810;9.148;2023-04-03T04:16:41;98897.16;;;3.60;86.25
28312;BME280;15572;48.810;9.148;2023-04-03T04:21:38;98900.41;;;3.63;86.87
28312;BME280;15572;48.810;9.148;2023-04-03T04:26:34;98896.91;;;3.63;87.08
28312;BME280;15572;48.810;9.148;2023-04-03T04:31:32;98895.91;;;3.64;86.66
28312;BME280;15572;48.810;9.148;2023-04-03T04:36:28;98896.63;;;3.66;86.72
28312;BME280;15572;48.810;9.148;2023-04-03T04:41:25;98901.69;;;3.69;86.18
28312;BME280;15572;48.810;9.148;2023-04-03T04:46:22;98901.97;;;3.66;85.80
28312;BME280;15572;48.810;9.148;2023-04-03T04:51:20;98889.31;;;3.68;85.57
28312;BME280;15572;48.810;9.148;2023-04-03T04:56:16;98905.22;;;3.69;84.84
28312;BME280;15572;48.810;9.148;2023-04-03T05:01:12;98906.94;;;3.70;84.47
28312;BME280;15572;48.810;9.148;2023-04-03T05:06:09;98909.47;;;3.72;84.47
28312;BME280;15572;48.810;9.148;2023-04-03T05:11:07;98915.81;;;3.71;82.73
28312;BME280;15572;48.810;9.148;2023-04-03T05:16:04;98920.75;;;3.75;82.08
28312;BME280;15572;48.810;9.148;2023-04-03T05:21:00;98924.81;;;3.70;78.72
28312;BME280;15572;48.810;9.148;2023-04-03T05:25:57;98930.59;;;3.65;78.62
28312;BME280;15572;48.810;9.148;2023-04-03T05:30:56;98930.28;;;3.59;79.48
28312;BME280;15572;48.810;9.148;2023-04-03T05:35:52;98932.38;;;3.55;80.25
28312;BME280;15572;48.810;9.148;2023-04-03T05:40:49;98941.81;;;3.50;78.98
28312;BME280;15572;48.810;9.148;2023-04-03T05:45:47;98942.56;;;3.61;80.42
28312;BME280;15572;48.810;9.148;2023-04-03T05:50:45;98940.44;;;3.65;79.24
28312;BME280;15572;48.810;9.148;2023-04-03T05:55:42;98951.56;;;3.60;79.51
28312;BME280;15572;48.810;9.148;2023-04-03T06:00:38;98950.72;;;3.60;80.17
28312;BME280;15572;48.810;9.148;2023-04-03T06:05:35;98949.66;;;3.72;80.77
28312;BME280;15572;48.810;9.148;2023-04-03T06:10:33;98958.13;;;3.77;78.76
28312;BME280;15572;48.810;9.148;2023-04-03T06:15:30;98958.88;;;3.89;80.21
28312;BME280;15572;48.810;9.148;2023-04-03T06:20:26;98964.81;;;4.02;79.47
28312;BME280;15572;48.810;9.148;2023-04-03T06:25:23;98963.72;;;4.04;78.93
28312;BME280;15572;48.810;9.148;2023-04-03T06:30:21;98972.88;;;4.11;78.53
28312;BME280;15572;48.810;9.148;2023-04-03T06:35:17;98976.56;;;4.10;78.50
28312;BME280;15572;48.810;9.148;2023-04-03T06:40:18;98971.66;;;4.15;77.58
28312;BME280;15572;48.810;9.148;2023-04-03T06:45:16;98966.09;;;4.07;76.87
28312;BME280;15572;48.810;9.148;2023-04-03T06:50:14;98975.31;;;4.24;77.30
28312;BME280;15572;48.810;9.148;2023-04-03T06:55:11;98975.75;;;4.29;76.91
28312;BME280;15572;48.810;9.148;2023-04-03T07:00:08;98978.44;;;4.29;77.17
28312;BME280;15572;48.810;9.148;2023-04-03T07:05:06;98988.19;;;4.30;78.75
28312;BME280;15572;48.810;9.148;2023-04-03T07:10:06;98988.06;;;4.51;78.60
28312;BME280;15572;48.810;9.148;2023-04-03T07:15:04;98996.53;;;4.65;77.44
28312;BME280;15572;48.810;9.148;2023-04-03T07:20:02;98999.09;;;4.48;77.00
28312;BME280;15572;48.810;9.148;2023-04-03T07:24:59;98999.53;;;4.62;77.60
28312;BME280;15572;48.810;9.148;2023-04-03T07:29:57;99004.63;;;4.75;77.90
28312;BME280;15572;48.810;9.148;2023-04-03T07:34:53;99008.00;;;4.87;77.03
28312;BME280;15572;48.810;9.148;2023-04-03T07:39:50;99006.88;;;4.89;76.46
28312;BME280;15572;48.810;9.148;2023-04-03T07:44:47;99011.09;;;5.11;75.95
28312;BME280;15572;48.810;9.148;2023-04-03T07:49:44;99010.63;;;5.35;75.80
28312;BME280;15572;48.810;9.148;2023-04-03T07:54:41;99019.25;;;5.48;73.98
28312;BME280;15572;48.810;9.148;2023-04-03T07:59:37;99019.19;;;5.67;74.11
28312;BME280;15572;48.810;9.148;2023-04-03T08:04:36;99022.47;;;5.51;74.22
28312;BME280;15572;48.810;9.148;2023-04-03T08:09:33;99024.56;;;5.77;73.84
28312;BME280;15572;48.810;9.148;2023-04-03T08:14:31;99025.41;;;5.87;72.73
28312;BME280;15572;48.810;9.148;2023-04-03T08:19:29;99023.97;;;5.93;72.96
28312;BME280;15572;48.810;9.148;2023-04-03T08:24:26;99024.56;;;5.67;71.27
28312;BME280;15572;48.810;9.148;2023-04-03T08:29:24;99030.50;;;5.61;74.49
28312;BME280;15572;48.810;9.148;2023-04-03T08:34:20;99023.13;;;5.92;72.88
28312;BME280;15572;48.810;9.148;2023-04-03T08:39:17;99030.72;;;5.97;71.31
28312;BME280;15572;48.810;9.148;2023-04-03T08:44:17;99025.75;;;6.02;72.28
28312;BME280;15572;48.810;9.148;2023-04-03T08:49:22;99031.47;;;5.79;72.36
28312;BME280;15572;48.810;9.148;2023-04-03T08:54:26;99029.03;;;5.96;73.66
28312;BME280;15572;48.810;9.148;2023-04-03T08:59:28;99031.63;;;6.42;70.46
28312;BME280;15572;48.810;9.148;2023-04-03T09:04:27;99038.31;;;6.38;70.18
28312;BME280;15572;48.810;9.148;2023-04-03T09:09:31;99042.94;;;6.73;68.89
28312;BME280;15572;48.810;9.148;2023-04-03T09:14:33;99026.75;;;6.55;67.57
28312;BME280;15572;48.810;9.148;2023-04-03T09:19:38;99034.22;;;6.61;69.26
28312;BME280;15572;48.810;9.148;2023-04-03T09:24:38;99042.00;;;6.37;67.38
28312;BME280;15572;48.810;9.148;2023-04-03T09:29:39;99036.59;;;6.19;66.79
28312;BME280;15572;48.810;9.148;2023-04-03T09:34:38;99044.19;;;5.97;66.55
28312;BME280;15572;48.810;9.148;2023-04-03T09:39:49;99040.34;;;6.26;65.79
28312;BME280;15572;48.810;9.148;2023-04-03T09:44:53;99031.84;;;6.31;64.29
28312;BME280;15572;48.810;9.148;2023-04-03T09:50:10;99030.25;;;6.38;64.29
28312;BME280;15572;48.810;9.148;2023-04-03T09:55:16;99026.84;;;6.81;63.61
28312;BME280;15572;48.810;9.148;2023-04-03T10:00:21;99028.00;;;6.78;60.99
28312;BME280;15572;48.810;9.148;2023-04-03T10:05:30;99029.31;;;6.57;62.01
28312;BME280;15572;48.810;9.148;2023-04-03T10:10:28;99021.34;;;6.83;61.45
28312;BME280;15572;48.810;9.148;2023-04-03T10:15:36;99027.38;;;6.85;62.43
28312;BME280;15572;48.810;9.148;2023-04-03T10:20:37;99018.34;;;7.03;61.77
28312;BME280;15572;48.810;9.148;2023-04-03T10:25:42;99013.72;;;6.96;63.43
28312;BME280;15572;48.810;9.148;2023-04-03T10:30:47;99011.78;;;6.70;63.99
28312;BME280;15572;48.810;9.148;2023-04-03T10:35:53;99017.69;;;6.56;62.56
28312;BME280;15572;48.810;9.148;2023-04-03T10:40:57;99020.59;;;6.18;63.63
28312;BME280;15572;48.810;9.148;2023-04-03T10:46:00;99013.78;;;6.41;64.06
28312;BME280;15572;48.810;9.148;2023-04-03T10:51:03;99014.38;;;6.45;63.85
28312;BME280;15572;48.810;9.148;2023-04-03T10:56:06;99017.44;;;6.50;63.27
28312;BME280;15572;48.810;9.148;2023-04-03T11:01:08;99016.84;;;6.56;61.71
28312;BME280;15572;48.810;9.148;2023-04-03T11:06:11;99004.19;;;6.84;60.86
28312;BME280;15572;48.810;9.148;2023-04-03T11:11:11;99009.94;;;6.71;59.34
28312;BME280;15572;48.810;9.148;2023-04-03T11:16:13;99002.63;;;7.16;58.01
28312;BME280;15572;48.810;9.148;2023-04-03T11:21:17;98999.47;;;7.21;54.87
28312;BME280;15572;48.810;9.148;2023-04-03T11:26:19;99008.78;;;6.73;53.81
28312;BME280;15572;48.810;9.148;2023-04-03T11:31:29;98997.31;;;6.89;54.75
28312;BME280;15572;48.810;9.148;2023-04-03T11:36:31;98995.09;;;6.85;55.22
28312;BME280;15572;48.810;9.148;2023-04-03T11:41:31;98994.09;;;6.86;54.37
28312;BME280;15572;48.810;9.148;2023-04-03T11:46:51;98990.25;;;6.70;54.90
28312;BME280;15572;48.810;9.148;2023-04-03T11:51:49;98982.50;;;6.67;55.71
28312;BME280;15572;48.810;9.148;2023-04-03T11:56:46;98988.56;;;7.05;55.54
28312;BME280;15572;48.810;9.148;2023-04-03T12:01:43;98982.31;;;7.48;55.98
28312;BME280;15572;48.810;9.148;2023-04-03T12:07:08;98965.94;;;7.41;54.02
28312;BME280;15572;48.810;9.148;2023-04-03T12:12:36;98968.28;;;7.36;52.82
28312;BME280;15572;48.810;9.148;2023-04-03T12:17:33;98970.47;;;7.15;52.48
28312;BME280;15572;48.810;9.148;2023-04-03T12:22:31;98968.69;;;7.24;51.79
28312;BME280;15572;48.810;9.148;2023-04-03T12:27:33;98968.19;;;7.28;51.75
28312;BME280;15572;48.810;9.148;2023-04-03T12:32:55;98958.38;;;7.71;51.43
28312;BME280;15572;48.810;9.148;2023-04-03T12:38:14;98949.28;;;8.06;48.88
28312;BME280;15572;48.810;9.148;2023-04-03T12:43:24;98948.72;;;7.60;49.61
28312;BME280;15572;48.810;9.148;2023-04-03T12:48:25;98947.34;;;7.56;50.76
28312;BME280;15572;48.810;9.148;2023-04-03T12:53:25;98955.31;;;7.66;51.33
28312;BME280;15572;48.810;9.148;2023-04-03T12:58:24;98957.16;;;7.39;51.21
28312;BME280;15572;48.810;9.148;2023-04-03T13:03:24;98958.59;;;7.26;51.58
28312;BME280;15572;48.810;9.148;2023-04-03T13:08:21;98950.16;;;7.46;51.53
28312;BME280;15572;48.810;9.148;2023-04-03T13:13:19;98942.69;;;7.40;50.32
28312;BME280;15572;48.810;9.148;2023-04-03T13:18:23;98943.47;;;7.84;50.21
28312;BME280;15572;48.810;9.148;2023-04-03T13:23:20;98934.66;;;8.16;48.88
28312;BME280;15572;48.810;9.148;2023-04-03T13:28:22;98936.25;;;7.93;49.93
28312;BME280;15572;48.810;9.148;2023-04-03T13:33:22;98938.25;;;7.91;50.68
28312;BME280;15572;48.810;9.148;2023-04-03T13:38:25;98921.41;;;7.89;47.28
28312;BME280;15572;48.810;9.148;2023-04-03T13:43:25;98921.34;;;7.73;48.34
28312;BME280;15572;48.810;9.148;2023-04-03T13:48:22;98930.38;;;7.97;48.48
28312;BME280;15572;48.810;9.148;2023-04-03T13:53:19;98925.50;;;8.43;47.15
28312;BME280;15572;48.810;9.148;2023-04-03T13:58:23;98925.56;;;8.92;44.97
28312;BME280;15572;48.810;9.148;2023-04-03T14:03:22;98923.81;;;8.66;45.27
28312;BME280;15572;48.810;9.148;2023-04-03T14:08:19;98926.28;;;8.27;46.74
28312;BME280;15572;48.810;9.148;2023-04-03T14:13:17;98932.91;;;8.07;46.81
28312;BME280;15572;48.810;9.148;2023-04-03T14:18:18;98917.31;;;7.77;45.83
28312;BME280;15572;48.810;9.148;2023-04-03T14:23:15;98914.22;;;7.64;48.81
28312;BME280;15572;48.810;9.148;2023-04-03T14:28:17;98914.97;;;7.82;48.84
28312;BME280;15572;48.810;9.148;2023-04-03T14:33:18;98913.41;;;8.13;47.24
28312;BME280;15572;48.810;9.148;2023-04-03T14:38:24;98904.84;;;8.26;46.75
28312;BME280;15572;48.810;9.148;2023-04-03T14:43:21;98910.16;;;8.52;46.10
28312;BME280;15572;48.810;9.148;2023-04-03T14:48:21;98907.81;;;8.65;45.08
28312;BME280;15572;48.810;9.148;2023-04-03T14:53:19;98902.03;;;9.24;44.74
28312;BME280;15572;48.810;9.148;2023-04-03T14:58:20;98899.72;;;9.05;43.89
28312;BME280;15572;48.810;9.148;2023-04-03T15:03:20;98897.34;;;8.78;45.19
28312;BME280;15572;48.810;9.148;2023-04-03T15:08:20;98893.28;;;8.82;44.40
28312;BME280;15572;48.810;9.148;2023-04-03T15:13:19;98893.16;;;8.75;45.12
28312;BME280;15572;48.810;9.148;2023-04-03T15:18:18;98898.03;;;8.80;44.40
28312;BME280;15572;48.810;9.148;2023-04-03T15:23:17;98893.81;;;8.94;43.81
28312;BME280;15572;48.810;9.148;2023-04-03T15:28:18;98898.19;;;8.54;43.67
28312;BME280;15572;48.810;9.148;2023-04-03T15:33:15;98898.72;;;8.90;44.19
28312;BME280;15572;48.810;9.148;2023-04-03T15:38:11;98903.38;;;8.39;43.93
28312;BME280;15572;48.810;9.148;2023-04-03T15:43:09;98894.78;;;8.44;43.99
28312;BME280;15572;48.810;9.148;2023-04-03T15:48:06;98890.59;;;8.58;43.64
28312;BME280;15572;48.810;9.148;2023-04-03T15:53:03;98892.63;;;8.88;42.06
28312;BME280;15572;48.810;9.148;2023-04-03T15:58:00;98886.53;;;9.26;41.13
28312;BME280;15572;48.810;9.148;2023-04-03T16:03:00;98886.31;;;9.44;39.90
28312;BME280;15572;48.810;9.148;2023-04-03T16:07:59;98878.81;;;9.70;40.56
28312;BME280;15572;48.810;9.148;2023-04-03T16:12:56;98888.00;;;9.92;40.10
28312;BME280;15572;48.810;9.148;2023-04-03T16:17:53;98885.72;;;10.43;39.46
28312;BME280;15572;48.810;9.148;2023-04-03T16:22:51;98891.13;;;10.20;39.75
28312;BME280;15572;48.810;9.148;2023-04-03T16:27:48;98897.88;;;8.65;41.61
28312;BME280;15572;48.810;9.148;2023-04-03T16:32:45;98906.06;;;7.89;43.68
28312;BME280;15572;48.810;9.148;2023-04-03T16:37:41;98900.00;;;7.53;44.79
28312;BME280;15572;48.810;9.148;2023-04-03T16:42:39;98894.72;;;7.44;45.14
28312;BME280;15572;48.810;9.148;2023-04-03T16:47:36;98900.38;;;7.58;44.77
28312;BME280;15572;48.810;9.148;2023-04-03T16:52:32;98898.97;;;7.46;43.87
28312;BME280;15572;48.810;9.148;2023-04-03T16:57:29;98899.97;;;7.19;44.62
28312;BME280;15572;48.810;9.148;2023-04-03T17:02:27;98895.06;;;7.15;45.04
28312;BME280;15572;48.810;9.148;2023-04-03T17:07:25;98903.69;;;7.01;45.90
28312;BME280;15572;48.810;9.148;2023-04-03T17:12:21;98900.84;;;6.76;46.14
28312;BME280;15572;48.810;9.148;2023-04-03T17:17:21;98901.31;;;6.54;46.53
28312;BME280;15572;48.810;9.148;2023-04-03T17:22:19;98901.75;;;6.32;47.21
28312;BME280;15572;48.810;9.148;2023-04-03T17:27:16;98906.88;;;6.25;47.26
28312;BME280;15572;48.810;9.148;2023-04-03T17:32:13;98894.28;;;6.08;48.30
28312;BME280;15572;48.810;9.148;2023-04-03T17:37:09;98901.41;;;6.00;48.74
28312;BME280;15572;48.810;9.148;2023-04-03T17:42:07;98897.25;;;5.87;48.24
28312;BME280;15572;48.810;9.148;2023-04-03T17:47:05;98895.84;;;5.74;48.39
28312;BME280;15572;48.810;9.148;2023-04-03T17:52:02;98905.81;;;5.64;49.06
28312;BME280;15572;48.810;9.148;2023-04-03T17:56:58;98908.81;;;5.61;49.23
28312;BME280;15572;48.810;9.148;2023-04-03T18:01:56;98904.16;;;5.53;49.56
28312;BME280;15572;48.810;9.148;2023-04-03T18:06:53;98906.72;;;5.45;50.28
28312;BME280;15572;48.810;9.148;2023-04-03T18:11:51;98901.38;;;5.35;51.03
28312;BME280;15572;48.810;9.148;2023-04-03T18:16:48;98903.13;;;5.27;51.07
28312;BME280;15572;48.810;9.148;2023-04-03T18:21:46;98908.22;;;5.20;51.46
28312;BME280;15572;48.810;9.148;2023-04-03T18:26:44;98913.31;;;5.14;51.88
28312;BME280;15572;48.810;9.148;2023-04-03T18:31:45;98923.81;;;5.07;51.57
28312;BME280;15572;48.810;9.148;2023-04-03T18:36:42;98920.13;;;4.98;51.32
28312;BME280;15572;48.810;9.148;2023-04-03T18:41:42;98924.25;;;4.93;50.90
28312;BME280;15572;48.810;9.148;2023-04-03T18:46:39;98927.50;;;4.87;51.38
28312;BME280;15572;48.810;9.148;2023-04-03T18:51:35;98927.25;;;4.80;51.21
28312;BME280;15572;48.810;9.148;2023-04-03T18:56:33;98933.16;;;4.74;52.17
28312;BME280;15572;48.810;9.148;2023-04-03T19:01:32;98940.38;;;4.64;52.95
28312;BME280;15572;48.810;9.148;2023-04-03T19:06:28;98936.69;;;4.55;53.46
28312;BME280;15572;48.810;9.148;2023-04-03T19:11:25;98943.47;;;4.50;53.25
28312;BME280;15572;48.810;9.148;2023-04-03T19:16:22;98939.66;;;4.43;53.74
28312;BME280;15572;48.810;9.148;2023-04-03T19:21:20;98942.91;;;4.37;54.10
28312;BME280;15572;48.810;9.148;2023-04-03T19:26:18;98938.94;;;4.31;54.17
28312;BME280;15572;48.810;9.148;2023-04-03T19:31:17;98940.34;;;4.35;53.53
28312;BME280;15572;48.810;9.148;2023-04-03T19:36:15;98946.28;;;4.39;53.90
28312;BME280;15572;48.810;9.148;2023-04-03T19:41:16;98944.31;;;4.41;53.41
28312;BME280;15572;48.810;9.148;2023-04-03T19:46:13;98945.41;;;4.38;54.53
28312;BME280;15572;48.810;9.148;2023-04-03T19:51:12;98949.78;;;4.30;54.19
28312;BME280;15572;48.810;9.148;2023-04-03T19:56:09;98946.69;;;4.24;54.61
28312;BME280;15572;48.810;9.148;2023-04-03T20:01:07;98945.28;;;4.20;54.34
28312;BME280;15572;48.810;9.148;2023-04-03T20:06:04;98949.78;;;4.20;54.51
28312;BME280;15572;48.810;9.148;2023-04-03T20:11:00;98943.41;;;4.11;54.05
28312;BME280;15572;48.810;9.148;2023-04-03T20:16:00;98947.03;;;4.01;53.95
28312;BME280;15572;48.810;9.148;2023-04-03T20:21:00;98949.69;;;3.91;54.03
28312;BME280;15572;48.810;9.148;2023-04-03T20:25:59;98944.44;;;3.80;54.22
28312;BME280;15572;48.810;9.148;2023-04-03T20:30:55;98947.06;;;3.61;55.27
28312;BME280;15572;48.810;9.148;2023-04-03T20:35:54;98944.03;;;3.45;55.19
28312;BME280;15572;48.810;9.148;2023-04-03T20:40:52;98943.66;;;3.28;55.59
28312;BME280;15572;48.810;9.148;2023-04-03T20:45:48;98945.56;;;3.17;55.82
28312;BME280;15572;48.810;9.148;2023-04-03T20:50:45;98942.00;;;3.07;56.88
28312;BME280;15572;48.810;9.148;2023-04-03T20:55:42;98942.66;;;2.99;57.23
28312;BME280;15572;48.810;9.148;2023-04-03T21:00:40;98947.69;;;2.92;57.34
28312;BME280;15572;48.810;9.148;2023-04-03T21:05:37;98944.94;;;2.83;58.37
28312;BME280;15572;48.810;9.148;2023-04-03T21:21:06;98942.63;;;2.58;59.50
28312;BME280;15572;48.810;9.148;2023-04-03T21:26:02;98937.94;;;2.50;59.55
28312;BME280;15572;48.810;9.148;2023-04-03T21:30:58;98943.78;;;2.44;59.57
28312;BME280;15572;48.810;9.148;2023-04-03T21:36:02;98946.38;;;2.34;60.26
28312;BME280;15572;48.810;9.148;2023-04-03T21:41:08;98947.84;;;2.27;60.70
28312;BME280;15572;48.810;9.148;2023-04-03T21:46:35;98950.28;;;2.19;61.05
28312;BME280;15572;48.810;9.148;2023-04-03T21:51:32;98944.16;;;2.07;61.60
28312;BME280;15572;48.810;9.148;2023-04-03T21:56:34;98954.09;;;2.05;61.23
28312;BME280;15572;48.810;9.148;2023-04-03T22:01:30;98948.66;;;1.96;62.67
28312;BME280;15572;48.810;9.148;2023-04-03T22:06:27;98951.94;;;1.88;62.91
28312;BME280;15572;48.810;9.148;2023-04-03T22:11:24;98942.59;;;1.83;62.31
28312;BME280;15572;48.810;9.148;2023-04-03T22:16:22;98952.97;;;1.76;62.89
28312;BME280;15572;48.810;9.148;2023-04-03T22:21:19;98952.34;;;1.73;63.42
28312;BME280;15572;48.810;9.148;2023-04-03T22:26:16;98956.34;;;1.67;64.10
28312;BME280;15572;48.810;9.148;2023-04-03T22:31:13;98949.44;;;1.64;63.76
28312;BME280;15572;48.810;9.148;2023-04-03T22:36:12;98954.41;;;1.58;63.95
28312;BME280;15572;48.810;9.148;2023-04-03T22:41:09;98955.84;;;1.51;64.66
28312;BME280;15572;48.810;9.148;2023-04-03T22:46:07;98961.44;;;1.48;64.73
28312;BME280;15572;48.810;9.148;2023-04-03T22:51:04;98957.44;;;1.42;65.21
28312;BME280;15572;48.810;9.148;2023-04-03T22:56:05;98962.28;;;1.37;65.33
28312;BME280;15572;48.810;9.148;2023-04-03T23:01:04;98960.22;;;1.30;65.30
28312;BME280;15572;48.810;9.148;2023-04-03T23:06:01;98966.03;;;1.23;65.15
28312;BME280;15572;48.810;9.148;2023-04-03T23:10:58;98962.88;;;1.18;65.67
28312;BME280;15572;48.810;9.148;2023-04-03T23:15:57;98963.59;;;1.09;66.62
28312;BME280;15572;48.810;9.148;2023-04-03T23:20:53;98962.59;;;0.99;67.23
28312;BME280;15572;48.810;9.148;2023-04-03T23:25:50;98968.19;;;0.96;67.41
28312;BME280;15572;48.810;9.148;2023-04-03T23:30:47;98970.34;;;0.91;67.54
28312;BME280;15572;48.810;9.148;2023-04-03T23:35:46;98977.97;;;0.84;67.58
28312;BME280;15572;48.810;9.148;2023-04-03T23:40:44;98968.97;;;0.74;67.92
28312;BME280;15572;48.810;9.148;2023-04-03T23:45:43;98972.47;;;0.64;69.37
28312;BME280;15572;48.810;9.148;2023-04-03T23:50:39;98969.75;;;0.53;70.06
28312;BME280;15572;48.810;9.148;2023-04-03T23:55:37;98976.38;;;0.47;69.89
